Portada
METAR-TAF:

METAR-TAF

Aeroports :

Ortonville Municipal Airport (Martinson Field)

Ortonville, Minnesota, Estats Units d'Amèrica

latitud: 45-18-20N, longitud: 096-25-28W, altitud: 335 m

Observació

L'informe es va fer fa 16 minuts, a les 15:56 UTC
Vent calma
Temperatura -11°C
Humitat 92%
Pressió 1021 hPa
Visibilitat: 0.8 km
Cel cobert a una alçada de 200 ft
neu

METAR: KVVV 281556Z AUTO 00000KT 1/2SM -SN OVC002 M11/M12 A3015 RMK AO2

Hora: 10:12 (16:12 UTC)


TAF: manca

Observacions i pronòstics meteorològics de més de 4000 aeroports (METAR i TAF).

Les estacions disponibles són els punts grocs i vermells al mapa.

Posi el ratolí al punt desitjat per veure el nom de l'estació.

Feu clic per veure les observacions i els pronòstics meteorològics.

Per canviar el mapa: feu clic els botons verds amb una creu de color negre per apropar; al botó verd amb un guió per allunyar la imatge; o en les fletxes verdes per a mapes adjacents.


METAR-TAF: